Elena, Argentina
Current Conditions -  °F | °C
As of 3:00 AM on Sunday 23 Nov 2014 (Local Time) from SAOC Reporting Station
Clear Clear  
Wind Chill: 17°   Ceiling: Unl
Heat Index: 17°   Visibility: 6mi
Dew Point: 10°   Wind: 9mph
Humidity: 63%   Direction: 340°NNW
Pressure: 29.83"   Gusts: NA
Location:  32.57°S, 64.39°W
Report Text: SAOC 230600Z 34008KT CAVOK 17/10 Q1010
Loading
Personal Weather Stations






























Interactive Weather Map New forecast layout! Learn more

10-Day Weather Forecast

Advertisements
Track Severe Weather on mobile